Sonestown, Pennsylvania
Current Conditions -  °F | °C
As of 3:54 AM on Thursday 23 Oct 2014 (Local Time) from KIPT Reporting Station
Overcast Overcast  
Wind Chill: 51°   Ceiling: 6000
Heat Index: 51°   Visibility: 10mi
Dew Point: 40°   Wind: 14mph
Humidity: 66%   Direction: 320°NW
Pressure: 29.92"   Gusts: 25mph
Location:  41.35°N, 76.55°W
Report Text: KIPT 230754Z AUTO 32012G22KT 10SM FEW026 OVC060 11/04 A2992 RMK AO2 SLP134 T01060044
Loading
Personal Weather Stations






























Interactive Weather Map
Tropical Storm Tracking
New forecast layout! Learn more

10-Day Weather Forecast

Advertisements
Track Severe Weather on mobile